createdAt,value
2018-06-05T00:02:18.822Z,19.30
2018-06-05T00:26:18.958Z,18.90
2018-06-05T00:28:47.192Z,18.90
2018-06-05T00:31:15.427Z,18.90
2018-06-05T00:38:39.708Z,18.80
2018-06-05T00:41:07.901Z,18.80
2018-06-05T00:51:00.270Z,18.60
2018-06-05T00:53:28.501Z,18.60
2018-06-05T00:55:56.696Z,18.50
2018-06-05T01:00:52.869Z,18.40
2018-06-05T01:05:49.032Z,18.30
2018-06-05T01:08:17.268Z,18.20
2018-06-05T01:10:45.507Z,18.30
2018-06-05T01:13:13.755Z,18.30
2018-06-05T01:20:44.578Z,18.10
2018-06-05T01:23:12.830Z,18.00
2018-06-05T01:28:09.094Z,17.90
2018-06-05T01:30:37.437Z,17.90
2018-06-05T01:38:02.686Z,17.70
2018-06-05T01:45:26.966Z,17.70
2018-06-05T01:47:55.249Z,17.70
2018-06-05T01:50:23.493Z,17.70
2018-06-05T01:52:52.129Z,17.60
2018-06-05T01:57:48.347Z,17.70
2018-06-05T02:00:16.595Z,17.60
2018-06-05T02:02:44.857Z,17.70
2018-06-05T02:07:41.075Z,17.70
2018-06-05T02:10:09.383Z,17.70
2018-06-05T02:12:37.621Z,17.70
2018-06-05T02:15:05.951Z,17.70
2018-06-05T02:17:34.199Z,17.70
2018-06-05T02:20:02.467Z,17.60
2018-06-05T02:22:30.700Z,17.50
2018-06-05T02:24:58.965Z,17.50
2018-06-05T02:27:27.223Z,17.30
2018-06-05T02:29:55.515Z,17.20
2018-06-05T02:32:23.758Z,17.10
2018-06-05T02:34:52.019Z,17.00
2018-06-05T02:39:48.247Z,16.90
2018-06-05T02:44:44.584Z,16.80
2018-06-05T02:47:12.837Z,16.80
2018-06-05T02:49:41.154Z,16.80
2018-06-05T02:52:09.394Z,16.80
2018-06-05T02:54:37.681Z,16.80
2018-06-05T02:57:05.927Z,16.90
2018-06-05T03:02:02.097Z,17.00
2018-06-05T03:04:30.352Z,16.90
2018-06-05T03:06:58.644Z,16.90
2018-06-05T03:09:26.876Z,16.90
2018-06-05T03:14:23.402Z,16.80
2018-06-05T03:16:51.685Z,16.90
2018-06-05T03:19:20.369Z,17.00
2018-06-05T03:21:48.637Z,17.10
2018-06-05T03:26:44.957Z,17.10
2018-06-05T03:29:13.256Z,17.20
2018-06-05T03:31:41.513Z,17.20
2018-06-05T03:34:09.813Z,17.10
2018-06-05T03:36:38.033Z,17.10
2018-06-05T03:39:07.535Z,17.00
2018-06-05T03:41:35.759Z,16.90
2018-06-05T03:46:32.005Z,17.00
2018-06-05T03:49:00.265Z,17.10
2018-06-05T03:51:28.508Z,17.00
2018-06-05T03:53:56.725Z,17.20
2018-06-05T03:56:25.041Z,17.20
2018-06-05T04:03:49.306Z,17.30
2018-06-05T04:06:17.594Z,17.30
2018-06-05T04:08:45.881Z,17.20
2018-06-05T04:13:42.079Z,17.10
2018-06-05T04:16:10.355Z,17.20
2018-06-05T04:18:38.589Z,17.30
2018-06-05T04:21:06.852Z,17.40
2018-06-05T04:23:35.069Z,17.30
2018-06-05T04:26:03.280Z,17.20
2018-06-05T04:31:06.133Z,17.30
2018-06-05T04:33:34.372Z,17.20
2018-06-05T04:36:02.640Z,17.30
2018-06-05T04:38:30.867Z,17.30
2018-06-05T04:43:27.169Z,17.30
2018-06-05T04:45:55.423Z,17.30
2018-06-05T04:53:19.729Z,17.30
2018-06-05T04:55:48.010Z,17.50
2018-06-05T04:58:16.314Z,17.50
2018-06-05T05:00:45.083Z,17.50
2018-06-05T05:03:13.348Z,17.50
2018-06-05T05:05:41.630Z,17.60
2018-06-05T05:10:37.886Z,17.50
2018-06-05T05:15:34.593Z,17.40
2018-06-05T05:18:02.877Z,17.60
2018-06-05T05:20:31.106Z,17.50
2018-06-05T05:22:59.321Z,17.60
2018-06-05T05:25:27.534Z,17.50
2018-06-05T05:27:55.740Z,17.30
2018-06-05T05:30:23.964Z,17.50
2018-06-05T05:32:52.326Z,17.70
2018-06-05T05:37:48.968Z,17.40
2018-06-05T05:42:45.217Z,17.60
2018-06-05T05:45:13.462Z,17.50
2018-06-05T05:52:37.721Z,17.50
2018-06-05T05:55:05.998Z,17.50
2018-06-05T05:57:34.222Z,17.40
2018-06-05T06:02:30.376Z,17.50
2018-06-05T06:04:58.718Z,17.60
2018-06-05T06:07:26.988Z,17.80
2018-06-05T06:14:51.285Z,17.80
2018-06-05T06:17:19.521Z,17.80
2018-06-05T06:22:15.810Z,17.70
2018-06-05T06:24:44.170Z,18.00
2018-06-05T06:27:12.418Z,18.00
2018-06-05T06:29:40.760Z,18.00
2018-06-05T06:34:36.977Z,17.90
2018-06-05T06:37:05.277Z,17.80
2018-06-05T06:42:01.529Z,18.10
2018-06-05T06:44:29.915Z,18.40
2018-06-05T06:46:58.161Z,18.40
2018-06-05T06:54:22.380Z,18.10
2018-06-05T08:18:48.542Z,20.40
2018-06-05T08:23:44.825Z,19.80
2018-06-05T08:28:41.313Z,20.50
2018-06-05T08:31:09.541Z,20.20
2018-06-05T08:33:37.812Z,20.20
2018-06-05T08:36:06.063Z,19.90
2018-06-05T08:41:02.326Z,19.80
2018-06-05T08:43:30.641Z,20.30
2018-06-05T08:48:26.902Z,20.60
2018-06-05T08:50:55.241Z,21.10
2018-06-05T08:53:23.766Z,21.30
2018-06-05T08:55:52.197Z,21.10
2018-06-05T08:58:20.460Z,21.30
2018-06-05T09:00:48.749Z,22.00
2018-06-05T09:03:17.213Z,21.40
2018-06-05T09:05:45.480Z,21.50
2018-06-05T09:08:13.790Z,22.40
2018-06-05T09:10:42.060Z,21.30
2018-06-05T09:13:10.307Z,20.90
2018-06-05T09:15:38.835Z,21.60
2018-06-05T09:20:35.091Z,23.90
2018-06-05T09:23:03.362Z,23.50
2018-06-05T09:25:31.661Z,22.70
2018-06-05T09:27:59.912Z,23.20
2018-06-05T09:30:28.185Z,23.70
2018-06-05T09:32:56.844Z,23.70
2018-06-05T09:35:25.134Z,23.70
2018-06-05T09:37:53.347Z,23.70
2018-06-05T09:40:21.890Z,23.30
2018-06-05T09:42:50.321Z,23.10
2018-06-05T09:45:18.613Z,24.10
2018-06-05T09:47:46.943Z,24.70
2018-06-05T09:50:15.153Z,24.00
2018-06-05T09:55:11.914Z,22.90
2018-06-05T10:05:04.261Z,24.20
2018-06-05T10:10:00.527Z,25.10
2018-06-05T10:14:56.784Z,25.20
2018-06-05T10:17:25.075Z,25.40
2018-06-05T10:19:53.404Z,24.00
2018-06-05T10:22:21.623Z,25.20
2018-06-05T10:27:17.920Z,25.10
2018-06-05T10:29:46.194Z,25.20
2018-06-05T10:32:14.499Z,25.30
2018-06-05T10:37:11.282Z,24.50
2018-06-05T10:39:39.556Z,25.40
2018-06-05T10:42:08.239Z,25.10
2018-06-05T10:44:36.533Z,24.20
2018-06-05T10:47:04.893Z,24.80
2018-06-05T10:49:33.188Z,25.00
2018-06-05T10:52:01.436Z,25.70
2018-06-05T10:54:29.743Z,25.40
2018-06-05T10:56:58.071Z,26.20
2018-06-05T11:01:54.257Z,25.60
2018-06-05T11:04:22.533Z,25.80
2018-06-05T11:06:50.742Z,26.50
2018-06-05T11:11:47.056Z,27.40
2018-06-05T11:14:15.521Z,26.80
2018-06-05T11:16:43.931Z,26.00
2018-06-05T11:19:12.231Z,26.50
2018-06-05T11:21:40.496Z,27.00
2018-06-05T11:26:36.897Z,27.20
2018-06-05T11:34:01.346Z,25.60
2018-06-05T11:36:29.610Z,26.50
2018-06-05T11:41:34.627Z,27.60
2018-06-05T11:44:03.029Z,27.60
2018-06-05T11:46:31.281Z,27.60
2018-06-05T11:51:30.473Z,28.20
2018-06-05T11:53:58.759Z,27.80
2018-06-05T11:58:55.157Z,27.00
2018-06-05T12:01:23.409Z,27.20
2018-06-05T12:03:51.933Z,27.20
2018-06-05T12:06:20.153Z,27.40
2018-06-05T12:08:48.394Z,26.90
2018-06-05T12:11:16.737Z,27.50
2018-06-05T12:13:44.959Z,27.20
2018-06-05T12:21:09.313Z,27.80
2018-06-05T12:23:37.606Z,27.40
2018-06-05T12:26:05.926Z,27.80
2018-06-05T12:28:34.170Z,28.30
2018-06-05T12:33:30.421Z,27.60
2018-06-05T12:38:26.717Z,27.80
2018-06-05T12:40:55.031Z,27.40
2018-06-05T12:45:51.318Z,27.80
2018-06-05T12:48:19.574Z,28.00
2018-06-05T12:50:47.869Z,27.20
2018-06-05T12:53:16.146Z,27.50
2018-06-05T12:58:12.405Z,27.80
2018-06-05T13:00:41.162Z,28.00
2018-06-05T13:03:09.563Z,28.00
2018-06-05T13:08:05.759Z,27.50
2018-06-05T13:13:01.912Z,27.60
2018-06-05T13:20:26.777Z,27.90
2018-06-05T13:22:55.162Z,28.30
2018-06-05T13:27:51.318Z,27.90
2018-06-05T13:30:19.581Z,28.20
2018-06-05T13:32:47.933Z,27.60
2018-06-05T13:35:16.181Z,28.00
2018-06-05T13:40:13.149Z,28.30
2018-06-05T13:42:41.382Z,28.80
2018-06-05T13:45:09.653Z,29.10
2018-06-05T13:47:37.943Z,29.20
2018-06-05T13:50:06.178Z,28.80
2018-06-05T13:52:34.433Z,28.40
2018-06-05T13:55:02.799Z,28.00
2018-06-05T13:57:31.030Z,28.10
2018-06-05T13:59:59.271Z,27.90
2018-06-05T14:02:27.445Z,28.60
2018-06-05T14:04:55.734Z,28.00
2018-06-05T14:07:24.022Z,27.40
2018-06-05T14:12:20.293Z,28.50
2018-06-05T14:14:48.530Z,27.70
2018-06-05T14:17:16.802Z,28.40
2018-06-05T14:19:46.527Z,29.00
2018-06-05T14:22:14.850Z,29.00
2018-06-05T14:24:43.087Z,28.70
2018-06-05T14:29:46.092Z,28.50
2018-06-05T14:34:42.355Z,29.20
2018-06-05T14:37:10.586Z,28.80
2018-06-05T14:42:06.761Z,29.20
2018-06-05T14:44:35.073Z,28.40
2018-06-05T14:49:31.265Z,28.80
2018-06-05T14:51:59.565Z,29.20
2018-06-05T14:54:27.835Z,29.10
2018-06-05T14:56:56.117Z,30.30
2018-06-05T14:59:24.421Z,28.70
2018-06-05T15:01:54.954Z,28.60
2018-06-05T15:04:23.205Z,28.00
2018-06-05T15:06:51.477Z,28.20
2018-06-05T15:09:19.673Z,29.30
2018-06-05T15:11:47.945Z,28.60
2018-06-05T15:14:16.434Z,28.80
2018-06-05T15:16:44.678Z,28.20
2018-06-05T15:19:13.057Z,28.40
2018-06-05T15:21:41.297Z,29.00
2018-06-05T15:24:09.573Z,28.60
2018-06-05T15:29:05.880Z,28.10
2018-06-05T15:34:02.242Z,28.50
2018-06-05T15:36:30.438Z,27.80
2018-06-05T15:38:58.645Z,28.00
2018-06-05T15:41:26.914Z,28.40
2018-06-05T15:43:55.169Z,28.20
2018-06-05T15:46:23.377Z,28.50
2018-06-05T15:48:51.587Z,28.70
2018-06-05T15:51:19.897Z,29.00
2018-06-05T15:53:48.157Z,29.60
2018-06-05T15:56:16.359Z,28.40
2018-06-05T15:58:44.599Z,28.50
2018-06-05T16:03:40.845Z,27.60
2018-06-05T16:13:33.158Z,27.80
2018-06-05T16:16:01.510Z,28.20
2018-06-05T16:23:25.818Z,27.80
2018-06-05T16:25:54.073Z,27.50
2018-06-05T16:28:22.323Z,27.30
2018-06-05T16:33:18.613Z,27.20
2018-06-05T16:35:46.833Z,26.90
2018-06-05T16:38:15.478Z,27.00
2018-06-05T16:45:39.705Z,26.50
2018-06-05T16:48:07.962Z,26.30
2018-06-05T16:50:36.778Z,26.90
2018-06-05T16:53:05.104Z,26.80
2018-06-05T16:55:33.847Z,27.40
2018-06-05T16:58:02.095Z,26.70
2018-06-05T17:00:30.372Z,26.20
2018-06-05T17:05:26.740Z,27.00
2018-06-05T17:07:54.933Z,26.30
2018-06-05T17:10:23.189Z,26.00
2018-06-05T17:15:19.556Z,26.70
2018-06-05T17:17:48.043Z,27.10
2018-06-05T17:20:16.269Z,26.80
2018-06-05T17:27:40.405Z,26.20
2018-06-05T17:32:37.907Z,25.60
2018-06-05T17:35:06.155Z,25.90
2018-06-05T17:37:34.385Z,25.80
2018-06-05T17:42:47.901Z,25.30
2018-06-05T17:45:16.572Z,25.60
2018-06-05T17:47:44.792Z,26.00
2018-06-05T17:55:09.156Z,25.20
2018-06-05T17:57:37.405Z,25.20
2018-06-05T18:02:33.547Z,25.50
2018-06-05T18:05:01.725Z,25.50
2018-06-05T18:07:29.893Z,25.40
2018-06-05T18:09:58.081Z,25.10
2018-06-05T18:12:27.173Z,24.70
2018-06-05T18:14:55.332Z,24.30
2018-06-05T18:17:23.511Z,23.80
2018-06-05T18:19:51.692Z,23.60
2018-06-05T18:22:20.093Z,23.50
2018-06-05T18:24:48.375Z,23.40
2018-06-05T18:27:16.588Z,23.20
2018-06-05T18:29:44.789Z,23.20
2018-06-05T18:32:12.975Z,23.10
2018-06-05T18:34:41.320Z,23.00
2018-06-05T18:37:09.627Z,23.00
2018-06-05T18:39:37.876Z,22.80
2018-06-05T18:42:06.148Z,22.90
2018-06-05T18:47:02.611Z,22.70
2018-06-05T18:49:30.868Z,22.50
2018-06-05T18:54:29.099Z,22.40
2018-06-05T18:56:57.371Z,22.40
2018-06-05T18:59:25.619Z,22.30
2018-06-05T19:01:53.838Z,22.20
2018-06-05T19:04:22.033Z,22.20
2018-06-05T19:06:50.262Z,22.20
2018-06-05T19:11:46.529Z,21.90
2018-06-05T19:14:14.750Z,21.90
2018-06-05T19:16:42.926Z,21.90
2018-06-05T19:21:39.074Z,21.70
2018-06-05T19:24:07.273Z,21.70
2018-06-05T19:29:04.123Z,21.60
2018-06-05T19:31:32.309Z,21.50
2018-06-05T19:34:00.552Z,21.40
2018-06-05T19:41:24.751Z,21.30
2018-06-05T19:43:53.280Z,21.20
2018-06-05T19:46:21.526Z,21.20
2018-06-05T19:48:49.777Z,21.10
2018-06-05T19:51:18.005Z,20.90
2018-06-05T19:56:14.191Z,20.80
2018-06-05T20:01:10.376Z,20.80
2018-06-05T20:03:38.610Z,20.70
2018-06-05T20:08:34.824Z,20.60
2018-06-05T20:11:03.053Z,20.60
2018-06-05T20:18:27.340Z,20.40
2018-06-05T20:20:55.550Z,20.40
2018-06-05T20:23:23.772Z,20.30
2018-06-05T20:30:47.860Z,20.20
2018-06-05T20:33:16.038Z,20.10
2018-06-05T20:38:12.144Z,20.00
2018-06-05T20:40:40.362Z,20.00
2018-06-05T20:43:08.566Z,20.00
2018-06-05T20:45:36.800Z,20.00
2018-06-05T20:48:05.164Z,19.80
2018-06-05T20:50:33.378Z,19.90
2018-06-05T20:53:01.625Z,19.80
2018-06-05T20:55:30.075Z,19.80
2018-06-05T21:00:26.745Z,19.80
2018-06-05T21:02:54.982Z,19.70
2018-06-05T21:05:23.187Z,19.70
2018-06-05T21:07:51.384Z,19.70
2018-06-05T21:10:19.672Z,19.70
2018-06-05T21:12:47.978Z,19.60
2018-06-05T21:20:12.033Z,19.40
2018-06-05T21:22:40.220Z,19.30
2018-06-05T21:25:08.399Z,19.20
2018-06-05T21:27:36.600Z,19.20
2018-06-05T21:30:04.966Z,19.10
2018-06-05T21:32:33.105Z,19.10
2018-06-05T21:35:01.301Z,19.10
2018-06-05T21:37:29.473Z,19.00
2018-06-05T21:39:57.899Z,19.00
2018-06-05T21:42:26.071Z,19.00
2018-06-05T21:47:26.257Z,18.90
2018-06-05T21:49:54.485Z,18.80
2018-06-05T21:52:23.302Z,18.80
2018-06-05T21:54:51.593Z,18.70
2018-06-05T21:57:19.932Z,18.70
2018-06-05T21:59:48.169Z,18.60
2018-06-05T22:02:17.471Z,18.60
2018-06-05T22:07:13.816Z,18.50
2018-06-05T22:09:42.057Z,18.50
2018-06-05T22:12:10.244Z,18.30
2018-06-05T22:17:06.374Z,18.00
2018-06-05T22:19:34.539Z,17.90
2018-06-05T22:26:58.670Z,17.50
2018-06-05T22:29:26.929Z,17.40
2018-06-05T22:31:55.121Z,17.50
2018-06-05T22:34:23.384Z,17.50
2018-06-05T22:36:51.580Z,17.40
2018-06-05T22:39:19.788Z,17.30
2018-06-05T22:44:15.926Z,17.10
2018-06-05T22:46:44.168Z,17.10
2018-06-05T22:49:12.368Z,17.10
2018-06-05T22:54:08.517Z,17.00
2018-06-05T22:56:36.764Z,17.00
2018-06-05T23:01:32.956Z,16.80
2018-06-05T23:06:29.174Z,16.80
2018-06-05T23:08:57.398Z,16.70
2018-06-05T23:13:53.623Z,16.70
2018-06-05T23:16:21.840Z,16.70
2018-06-05T23:21:18.052Z,16.60
2018-06-05T23:26:14.253Z,16.50
2018-06-05T23:31:10.424Z,16.40
2018-06-05T23:33:38.664Z,16.40
2018-06-05T23:36:06.905Z,16.40
2018-06-05T23:38:35.186Z,16.40
2018-06-05T23:45:59.457Z,16.30
2018-06-05T23:48:27.632Z,16.30
2018-06-05T23:53:23.927Z,16.30
2018-06-05T23:55:52.148Z,16.30
2018-06-05T23:58:20.412Z,16.20
